createdAt,value
2017-04-27T00:00:21.535Z,0
2017-04-27T00:01:23.329Z,0
2017-04-27T00:02:25.117Z,0
2017-04-27T00:03:26.911Z,0
2017-04-27T00:04:28.712Z,0
2017-04-27T00:05:30.502Z,0
2017-04-27T00:06:32.297Z,0
2017-04-27T00:07:34.438Z,0
2017-04-27T00:08:36.267Z,0
2017-04-27T00:09:38.069Z,0
2017-04-27T00:10:39.866Z,0
2017-04-27T00:11:41.662Z,0
2017-04-27T00:12:43.454Z,0
2017-04-27T00:13:45.589Z,0
2017-04-27T00:14:47.381Z,0
2017-04-27T00:15:49.177Z,0
2017-04-27T00:16:50.967Z,0
2017-04-27T00:17:52.762Z,0
2017-04-27T00:18:54.554Z,0
2017-04-27T00:19:56.350Z,0
2017-04-27T00:20:58.142Z,0
2017-04-27T00:21:59.935Z,0
2017-04-27T00:23:01.730Z,0
2017-04-27T00:24:03.865Z,0
2017-04-27T00:25:05.658Z,0
2017-04-27T00:26:07.451Z,0
2017-04-27T00:27:09.248Z,0
2017-04-27T00:28:11.386Z,0
2017-04-27T00:29:13.176Z,0
2017-04-27T00:30:14.974Z,0
2017-04-27T00:31:16.768Z,0
2017-04-27T00:32:18.570Z,0
2017-04-27T00:33:20.368Z,0
2017-04-27T00:34:22.167Z,0
2017-04-27T00:35:23.964Z,0
2017-04-27T00:36:25.762Z,0
2017-04-27T00:37:27.555Z,0
2017-04-27T00:38:29.349Z,0
2017-04-27T00:39:31.138Z,0
2017-04-27T00:40:32.940Z,0
2017-04-27T00:41:34.727Z,0
2017-04-27T00:42:36.520Z,0
2017-04-27T00:43:38.312Z,0
2017-04-27T00:44:40.101Z,0
2017-04-27T00:45:41.893Z,0
2017-04-27T00:46:43.685Z,0
2017-04-27T00:47:45.479Z,0
2017-04-27T00:48:47.270Z,0
2017-04-27T00:49:49.061Z,0
2017-04-27T00:50:50.861Z,0
2017-04-27T00:51:52.654Z,0
2017-04-27T00:52:54.452Z,0
2017-04-27T00:53:56.248Z,0
2017-04-27T00:54:58.043Z,0
2017-04-27T00:56:00.174Z,0
2017-04-27T00:57:01.967Z,0
2017-04-27T00:58:03.756Z,0
2017-04-27T00:59:05.558Z,0
2017-04-27T01:00:07.351Z,0
2017-04-27T01:01:09.146Z,0
2017-04-27T01:02:11.299Z,0
2017-04-27T01:03:13.428Z,0
2017-04-27T01:04:15.223Z,0
2017-04-27T01:05:17.020Z,0
2017-04-27T01:06:19.167Z,0
2017-04-27T01:07:20.959Z,0
2017-04-27T01:08:23.431Z,0
2017-04-27T01:09:25.236Z,0
2017-04-27T01:10:27.363Z,0
2017-04-27T01:11:29.158Z,0
2017-04-27T01:12:30.957Z,0
2017-04-27T01:13:32.756Z,0
2017-04-27T01:14:35.233Z,0
2017-04-27T01:15:37.030Z,0
2017-04-27T01:16:38.827Z,0
2017-04-27T01:17:40.626Z,0
2017-04-27T01:18:42.422Z,0
2017-04-27T01:19:44.214Z,0
2017-04-27T01:20:46.387Z,0
2017-04-27T01:21:48.188Z,0
2017-04-27T01:22:49.980Z,0
2017-04-27T01:23:51.774Z,0
2017-04-27T01:24:53.908Z,0
2017-04-27T01:25:55.709Z,0
2017-04-27T01:26:57.499Z,0
2017-04-27T01:27:59.294Z,0
2017-04-27T01:29:01.090Z,0
2017-04-27T01:30:02.877Z,0
2017-04-27T01:31:04.715Z,0
2017-04-27T01:32:06.513Z,0
2017-04-27T01:33:08.306Z,0
2017-04-27T01:34:10.438Z,0
2017-04-27T01:35:12.233Z,0
2017-04-27T01:36:14.029Z,0
2017-04-27T01:37:16.161Z,0
2017-04-27T01:38:17.957Z,0
2017-04-27T01:39:20.428Z,0
2017-04-27T01:40:22.226Z,0
2017-04-27T01:41:24.020Z,0
2017-04-27T01:42:25.813Z,0
2017-04-27T01:43:27.605Z,0
2017-04-27T01:44:29.396Z,0
2017-04-27T01:45:31.525Z,0
2017-04-27T01:46:33.319Z,0
2017-04-27T01:47:35.112Z,0
2017-04-27T01:48:37.248Z,0
2017-04-27T01:49:39.409Z,0
2017-04-27T01:50:41.207Z,0
2017-04-27T01:51:42.994Z,0
2017-04-27T01:52:44.795Z,0
2017-04-27T01:53:46.591Z,0
2017-04-27T01:54:48.383Z,0
2017-04-27T01:55:50.180Z,0
2017-04-27T01:56:51.977Z,0
2017-04-27T01:57:53.772Z,0
2017-04-27T01:58:55.567Z,0
2017-04-27T01:59:57.364Z,0
2017-04-27T02:00:59.161Z,0
2017-04-27T02:02:01.292Z,0
2017-04-27T02:03:03.095Z,0
2017-04-27T02:04:04.888Z,0
2017-04-27T02:05:06.680Z,0
2017-04-27T02:06:08.473Z,0
2017-04-27T02:07:10.271Z,0
2017-04-27T02:08:12.063Z,0
2017-04-27T02:09:13.864Z,0
2017-04-27T02:10:16.007Z,0
2017-04-27T02:11:17.808Z,0
2017-04-27T02:12:19.598Z,0
2017-04-27T02:13:21.725Z,0
2017-04-27T02:14:23.517Z,0
2017-04-27T02:15:25.647Z,0
2017-04-27T02:16:27.448Z,0
2017-04-27T02:17:29.250Z,0
2017-04-27T02:18:31.044Z,0
2017-04-27T02:19:32.839Z,0
2017-04-27T02:20:34.626Z,0
2017-04-27T02:21:36.421Z,0
2017-04-27T02:22:38.552Z,0
2017-04-27T02:23:40.346Z,0
2017-04-27T02:24:42.473Z,0
2017-04-27T02:25:44.603Z,0
2017-04-27T02:26:46.396Z,0
2017-04-27T02:27:48.187Z,0
2017-04-27T02:28:50.657Z,0
2017-04-27T02:29:52.454Z,0
2017-04-27T02:30:54.247Z,0
2017-04-27T02:31:56.049Z,0
2017-04-27T02:32:57.834Z,0
2017-04-27T02:33:59.630Z,0
2017-04-27T02:35:01.773Z,0
2017-04-27T02:36:03.570Z,0
2017-04-27T02:37:05.366Z,0
2017-04-27T02:38:07.159Z,0
2017-04-27T02:39:08.956Z,0
2017-04-27T02:40:10.752Z,0
2017-04-27T02:41:12.547Z,0
2017-04-27T02:42:14.341Z,0
2017-04-27T02:43:16.129Z,0
2017-04-27T02:44:17.927Z,0
2017-04-27T02:45:19.718Z,0
2017-04-27T02:46:21.513Z,0
2017-04-27T02:47:23.304Z,0
2017-04-27T02:48:25.103Z,0
2017-04-27T02:49:26.891Z,0
2017-04-27T02:50:28.684Z,0
2017-04-27T02:51:30.480Z,0
2017-04-27T02:52:32.272Z,0
2017-04-27T02:53:34.402Z,0
2017-04-27T02:54:36.202Z,0
2017-04-27T02:55:37.991Z,0
2017-04-27T02:56:39.787Z,0
2017-04-27T02:57:41.588Z,0
2017-04-27T02:58:43.381Z,0
2017-04-27T02:59:45.174Z,0
2017-04-27T03:00:46.967Z,0
2017-04-27T03:01:49.101Z,0
2017-04-27T03:02:50.899Z,0
2017-04-27T03:03:53.049Z,1
2017-04-27T03:04:54.840Z,1
2017-04-27T03:05:56.642Z,1
2017-04-27T03:06:58.434Z,1
2017-04-27T03:08:00.233Z,1
2017-04-27T03:09:02.029Z,2
2017-04-27T03:10:03.814Z,0
2017-04-27T03:11:05.612Z,0
2017-04-27T03:12:07.401Z,1
2017-04-27T03:13:09.196Z,1
2017-04-27T03:14:11.340Z,3
2017-04-27T03:15:13.139Z,2
2017-04-27T03:16:14.929Z,3
2017-04-27T03:17:17.059Z,4
2017-04-27T03:18:18.860Z,3
2017-04-27T03:19:20.656Z,4
2017-04-27T03:20:22.789Z,5
2017-04-27T03:21:24.588Z,5
2017-04-27T03:22:26.382Z,7
2017-04-27T03:23:28.178Z,9
2017-04-27T03:24:30.304Z,10
2017-04-27T03:25:32.441Z,10
2017-04-27T03:26:34.231Z,13
2017-04-27T03:27:36.025Z,15
2017-04-27T03:28:38.503Z,17
2017-04-27T03:29:40.292Z,20
2017-04-27T03:30:42.085Z,23
2017-04-27T03:31:43.877Z,25
2017-04-27T03:32:46.008Z,30
2017-04-27T03:33:48.156Z,33
2017-04-27T03:34:49.949Z,39
2017-04-27T03:35:51.748Z,44
2017-04-27T03:36:53.547Z,50
2017-04-27T03:37:55.346Z,56
2017-04-27T03:38:58.160Z,65
2017-04-27T03:39:59.953Z,70
2017-04-27T03:41:01.745Z,79
2017-04-27T03:42:03.535Z,89
2017-04-27T03:43:05.325Z,99
2017-04-27T03:44:07.119Z,109
2017-04-27T03:45:09.247Z,120
2017-04-27T03:46:11.046Z,131
2017-04-27T03:47:12.835Z,144
2017-04-27T03:48:14.630Z,158
2017-04-27T03:49:16.449Z,171
2017-04-27T03:50:18.246Z,187
2017-04-27T03:51:20.041Z,202
2017-04-27T03:52:21.842Z,218
2017-04-27T03:53:23.967Z,235
2017-04-27T03:54:26.103Z,252
2017-04-27T03:55:28.233Z,267
2017-04-27T03:56:30.035Z,284
2017-04-27T03:57:31.827Z,299
2017-04-27T03:58:33.632Z,319
2017-04-27T03:59:35.421Z,338
2017-04-27T04:00:37.212Z,357
2017-04-27T04:01:39.006Z,379
2017-04-27T04:02:40.799Z,400
2017-04-27T04:03:42.970Z,420
2017-04-27T04:04:44.761Z,441
2017-04-27T04:05:46.884Z,462
2017-04-27T04:06:48.685Z,484
2017-04-27T04:07:50.473Z,503
2017-04-27T04:08:52.272Z,526
2017-04-27T04:09:54.062Z,546
2017-04-27T04:10:55.858Z,569
2017-04-27T04:11:57.652Z,590
2017-04-27T04:12:59.472Z,613
2017-04-27T04:14:01.602Z,633
2017-04-27T04:15:03.394Z,654
2017-04-27T04:16:05.236Z,675
2017-04-27T04:17:07.024Z,698
2017-04-27T04:18:08.816Z,718
2017-04-27T04:19:10.611Z,737
2017-04-27T04:20:12.412Z,759
2017-04-27T04:21:14.204Z,780
2017-04-27T04:22:15.997Z,800
2017-04-27T04:23:17.784Z,822
2017-04-27T04:24:19.577Z,842
2017-04-27T04:25:21.370Z,863
2017-04-27T04:26:23.163Z,883
2017-04-27T04:27:24.963Z,904
2017-04-27T04:28:26.751Z,924
2017-04-27T04:29:28.548Z,944
2017-04-27T04:30:30.347Z,965
2017-04-27T04:31:32.148Z,986
2017-04-27T04:32:33.937Z,1005
2017-04-27T04:33:35.733Z,1024
2017-04-27T04:34:38.204Z,1045
2017-04-27T04:35:39.999Z,1064
2017-04-27T04:36:42.146Z,1083
2017-04-27T04:37:43.937Z,1102
2017-04-27T04:38:45.731Z,1120
2017-04-27T04:39:48.216Z,1138
2017-04-27T04:40:50.006Z,1160
2017-04-27T04:41:52.141Z,1177
2017-04-27T04:42:53.930Z,1197
2017-04-27T04:43:55.727Z,1214
2017-04-27T04:44:57.523Z,1236
2017-04-27T04:45:59.651Z,1260
2017-04-27T04:47:01.442Z,1277
2017-04-27T04:48:03.232Z,1302
2017-04-27T04:49:05.706Z,1325
2017-04-27T04:50:07.494Z,1344
2017-04-27T04:51:09.293Z,1359
2017-04-27T04:52:11.424Z,1373
2017-04-27T04:53:13.227Z,1376
2017-04-27T04:54:15.697Z,1389
2017-04-27T04:55:17.492Z,1399
2017-04-27T04:56:19.331Z,1411
2017-04-27T04:57:21.366Z,1419
2017-04-27T04:58:23.369Z,1434
2017-04-27T04:59:25.256Z,1450
2017-04-27T05:00:27.192Z,1465
2017-04-27T05:01:28.992Z,1475
2017-04-27T05:02:30.784Z,1493
2017-04-27T05:03:32.579Z,1500
2017-04-27T05:04:34.371Z,1516
2017-04-27T05:05:36.166Z,1535
2017-04-27T05:06:37.962Z,1550
2017-04-27T05:07:40.087Z,1558
2017-04-27T05:08:42.558Z,1568
2017-04-27T05:09:44.344Z,1582
2017-04-27T05:10:46.141Z,1599
2017-04-27T05:11:48.276Z,1608
2017-04-27T05:12:50.073Z,1624
2017-04-27T05:13:51.864Z,1631
2017-04-27T05:14:53.660Z,1643
2017-04-27T05:15:55.801Z,1653
2017-04-27T05:16:57.594Z,1661
2017-04-27T05:17:59.390Z,1691
2017-04-27T05:19:01.533Z,1701
2017-04-27T05:20:03.326Z,1710
2017-04-27T05:21:05.124Z,1727
2017-04-27T05:22:06.918Z,1745
2017-04-27T05:23:08.720Z,1766
2017-04-27T05:24:10.509Z,1738
2017-04-27T05:25:12.304Z,1741
2017-04-27T05:26:14.101Z,1758
2017-04-27T05:27:15.899Z,1770
2017-04-27T05:28:18.053Z,1777
2017-04-27T05:29:20.527Z,1799
2017-04-27T05:30:22.326Z,1799
2017-04-27T05:31:24.125Z,1812
2017-04-27T05:32:25.920Z,1824
2017-04-27T05:33:28.050Z,1830
2017-04-27T05:34:29.850Z,1847
2017-04-27T05:35:31.641Z,1857
2017-04-27T05:36:33.438Z,1866
2017-04-27T05:37:35.230Z,1878
2017-04-27T05:38:37.697Z,1892
2017-04-27T05:39:39.498Z,1899
2017-04-27T05:40:41.293Z,1903
2017-04-27T05:41:43.093Z,1917
2017-04-27T05:42:44.888Z,1932
2017-04-27T05:43:46.686Z,1942
2017-04-27T05:44:48.494Z,1951
2017-04-27T05:45:50.285Z,1957
2017-04-27T05:46:52.082Z,1968
2017-04-27T05:47:53.879Z,1980
2017-04-27T05:48:55.673Z,1986
2017-04-27T05:49:57.471Z,1990
2017-04-27T05:50:59.266Z,2006
2017-04-27T05:52:01.068Z,2010
2017-04-27T05:53:02.866Z,2022
2017-04-27T05:54:04.659Z,2029
2017-04-27T05:55:06.457Z,2043
2017-04-27T05:56:08.594Z,2057
2017-04-27T05:57:10.391Z,2069
2017-04-27T05:58:12.185Z,2075
2017-04-27T05:59:14.003Z,2085
2017-04-27T06:00:16.152Z,2082
2017-04-27T06:01:17.950Z,2103
2017-04-27T06:02:19.741Z,2121
2017-04-27T06:03:21.535Z,2175
2017-04-27T06:04:23.331Z,2318
2017-04-27T06:05:25.165Z,2668
2017-04-27T06:06:26.956Z,3063
2017-04-27T06:07:28.754Z,3387
2017-04-27T06:08:30.548Z,3390
2017-04-27T06:09:32.347Z,3364
2017-04-27T06:10:34.137Z,3352
2017-04-27T06:11:35.938Z,3183
2017-04-27T06:12:37.739Z,2902
2017-04-27T06:13:39.542Z,2728
2017-04-27T06:14:41.676Z,2617
2017-04-27T06:15:43.471Z,2466
2017-04-27T06:16:45.638Z,2418
2017-04-27T06:17:47.436Z,2335
2017-04-27T06:18:49.233Z,2336
2017-04-27T06:19:51.025Z,2316
2017-04-27T06:20:52.827Z,2359
2017-04-27T06:21:54.630Z,2302
2017-04-27T06:22:56.433Z,2311
2017-04-27T06:23:58.223Z,2311
2017-04-27T06:25:00.697Z,2318
2017-04-27T06:26:02.498Z,2335
2017-04-27T06:27:04.297Z,2335
2017-04-27T06:28:06.092Z,2335
2017-04-27T06:29:07.894Z,2351
2017-04-27T06:30:09.689Z,2342
2017-04-27T06:31:11.487Z,2368
2017-04-27T06:32:13.278Z,2368
2017-04-27T06:33:15.078Z,2358
2017-04-27T06:34:16.874Z,2358
2017-04-27T06:35:18.672Z,2391
2017-04-27T06:36:20.474Z,2382
2017-04-27T06:37:22.272Z,2390
2017-04-27T06:38:24.410Z,2415
2017-04-27T06:39:26.208Z,2390
2017-04-27T06:40:28.009Z,2397
2017-04-27T06:41:29.804Z,2430
2017-04-27T06:42:31.605Z,2430
2017-04-27T06:43:33.404Z,2421
2017-04-27T06:44:35.217Z,2421
2017-04-27T06:45:37.013Z,2428
2017-04-27T06:46:38.814Z,2461
2017-04-27T06:47:40.614Z,2445
2017-04-27T06:48:42.410Z,2485
2017-04-27T06:49:44.546Z,2493
2017-04-27T06:50:46.352Z,2483
2017-04-27T06:51:48.147Z,2516
2017-04-27T06:52:49.955Z,2524
2017-04-27T06:53:51.759Z,2524
2017-04-27T06:54:53.562Z,2548
2017-04-27T06:55:55.392Z,2571
2017-04-27T06:56:57.187Z,2579
2017-04-27T06:57:58.988Z,2595
2017-04-27T06:59:00.782Z,2595
2017-04-27T07:00:02.587Z,2603
2017-04-27T07:01:04.380Z,2610
2017-04-27T07:02:06.184Z,2627
2017-04-27T07:03:07.979Z,2601
2017-04-27T07:04:09.779Z,2608
2017-04-27T07:05:11.578Z,2632
2017-04-27T07:06:13.376Z,2616
2017-04-27T07:07:15.177Z,2649
2017-04-27T07:08:16.981Z,2640
2017-04-27T07:09:19.468Z,2647
2017-04-27T07:10:21.264Z,2687
2017-04-27T07:11:23.064Z,2695
2017-04-27T07:12:24.869Z,2751
2017-04-27T07:13:26.666Z,2775
2017-04-27T07:14:28.468Z,2807
2017-04-27T07:15:30.605Z,2823
2017-04-27T07:16:32.743Z,2750
2017-04-27T07:17:34.547Z,2774
2017-04-27T07:18:36.351Z,2805
2017-04-27T07:19:38.487Z,2821
2017-04-27T07:20:40.285Z,2845
2017-04-27T07:21:42.438Z,2829
2017-04-27T07:22:44.239Z,2853
2017-04-27T07:23:46.034Z,2877
2017-04-27T07:24:47.843Z,2867
2017-04-27T07:25:49.637Z,2867
2017-04-27T07:26:51.434Z,2899
2017-04-27T07:27:53.234Z,2923
2017-04-27T07:28:55.034Z,2954
2017-04-27T07:29:56.836Z,3018
2017-04-27T07:30:58.633Z,3042
2017-04-27T07:32:00.434Z,3091
2017-04-27T07:33:02.570Z,3082
2017-04-27T07:34:04.396Z,3075
2017-04-27T07:35:06.194Z,3098
2017-04-27T07:36:07.991Z,3106
2017-04-27T07:37:09.791Z,3122
2017-04-27T07:38:11.596Z,3073
2017-04-27T07:39:13.399Z,3064
2017-04-27T07:40:15.540Z,3121
2017-04-27T07:41:17.340Z,3192
2017-04-27T07:42:19.143Z,3352
2017-04-27T07:43:20.939Z,3399
2017-04-27T07:44:22.741Z,3647
2017-04-27T07:45:24.542Z,3629
2017-04-27T07:46:26.347Z,3539
2017-04-27T07:47:28.147Z,3475
2017-04-27T07:48:29.943Z,3358
2017-04-27T07:49:31.745Z,3468
2017-04-27T07:50:33.551Z,3681
2017-04-27T07:51:35.355Z,3808
2017-04-27T07:52:37.152Z,4130
2017-04-27T07:53:39.291Z,4548
2017-04-27T07:54:41.094Z,4651
2017-04-27T07:55:42.899Z,4795
2017-04-27T07:56:44.701Z,4883
2017-04-27T07:57:46.498Z,5628
2017-04-27T07:58:48.297Z,5919
2017-04-27T07:59:50.103Z,4140
2017-04-27T08:00:51.905Z,3885
2017-04-27T08:01:53.707Z,4110
2017-04-27T08:02:55.508Z,4625
2017-04-27T08:03:57.311Z,5651
2017-04-27T08:04:59.116Z,6394
2017-04-27T08:06:00.921Z,5534
2017-04-27T08:07:02.719Z,5370
2017-04-27T08:08:04.522Z,6012
2017-04-27T08:09:06.320Z,7048
2017-04-27T08:10:08.122Z,6828
2017-04-27T08:11:09.927Z,7195
2017-04-27T08:12:11.726Z,7539
2017-04-27T08:13:13.531Z,7603
2017-04-27T08:14:15.330Z,7150
2017-04-27T08:15:17.132Z,6581
2017-04-27T08:16:18.939Z,6770
2017-04-27T08:17:20.744Z,7244
2017-04-27T08:18:22.886Z,6608
2017-04-27T08:19:24.695Z,6151
2017-04-27T08:20:26.497Z,6571
2017-04-27T08:21:28.302Z,8590
2017-04-27T08:22:30.098Z,9479
2017-04-27T08:23:31.901Z,10906
2017-04-27T08:24:34.048Z,12188
2017-04-27T08:25:35.848Z,11841
2017-04-27T08:26:37.653Z,10184
2017-04-27T08:27:39.455Z,10791
2017-04-27T08:28:41.261Z,11246
2017-04-27T08:29:43.061Z,10733
2017-04-27T08:30:45.207Z,9382
2017-04-27T08:31:47.010Z,8930
2017-04-27T08:32:48.816Z,8271
2017-04-27T08:33:50.957Z,8319
2017-04-27T08:34:52.774Z,8147
2017-04-27T08:35:54.927Z,7604
2017-04-27T08:36:56.729Z,7479
2017-04-27T08:37:58.535Z,5882
2017-04-27T08:39:00.338Z,5768
2017-04-27T08:40:02.137Z,6443
2017-04-27T08:41:03.945Z,7111
2017-04-27T08:42:06.083Z,7883
2017-04-27T08:43:07.890Z,8502
2017-04-27T08:44:09.689Z,8613
2017-04-27T08:45:11.499Z,9039
2017-04-27T08:46:13.303Z,8675
2017-04-27T08:47:15.106Z,8681
2017-04-27T08:48:16.915Z,9732
2017-04-27T08:49:19.074Z,10352
2017-04-27T08:50:20.882Z,10673
2017-04-27T08:51:22.681Z,9621
2017-04-27T08:52:24.485Z,10709
2017-04-27T08:53:26.627Z,12267
2017-04-27T08:54:28.431Z,12513
2017-04-27T08:55:30.234Z,12095
2017-04-27T08:56:32.398Z,11679
2017-04-27T08:57:34.203Z,11472
2017-04-27T08:58:36.012Z,11510
2017-04-27T08:59:37.817Z,9409
2017-04-27T09:00:39.623Z,9613
2017-04-27T09:01:41.428Z,8653
2017-04-27T09:02:43.234Z,8516
2017-04-27T09:03:45.036Z,9357
2017-04-27T09:04:46.846Z,9592
2017-04-27T09:05:48.649Z,8415
2017-04-27T09:06:50.452Z,8407
2017-04-27T09:07:52.263Z,7793
2017-04-27T09:08:54.067Z,6661
2017-04-27T09:09:55.879Z,5176
2017-04-27T09:10:57.684Z,5154
2017-04-27T09:11:59.499Z,5462
2017-04-27T09:13:01.311Z,5991
2017-04-27T09:14:03.455Z,6533
2017-04-27T09:15:05.290Z,7190
2017-04-27T09:16:07.090Z,8100
2017-04-27T09:17:08.896Z,10046
2017-04-27T09:18:10.705Z,9482
2017-04-27T09:19:12.513Z,9879
2017-04-27T09:20:14.323Z,11116
2017-04-27T09:21:16.148Z,11305
2017-04-27T09:22:17.953Z,12078
2017-04-27T09:23:19.763Z,13154
2017-04-27T09:24:21.580Z,13319
2017-04-27T09:25:23.384Z,12919
2017-04-27T09:26:25.199Z,11037
2017-04-27T09:27:27.010Z,12628
2017-04-27T09:28:28.823Z,13634
2017-04-27T09:29:30.636Z,13655
2017-04-27T09:30:32.464Z,11889
2017-04-27T09:31:34.276Z,11660
2017-04-27T09:32:36.086Z,10333
2017-04-27T09:33:38.243Z,10886
2017-04-27T09:34:40.051Z,12657
2017-04-27T09:35:41.869Z,14484
2017-04-27T09:36:43.679Z,13225
2017-04-27T09:37:45.496Z,13606
2017-04-27T09:38:47.318Z,19125
2017-04-27T09:39:49.136Z,24462
2017-04-27T09:40:50.954Z,9473
2017-04-27T09:41:52.766Z,9574
2017-04-27T09:42:54.583Z,9620
2017-04-27T09:43:56.399Z,9049
2017-04-27T09:44:59.229Z,8163
2017-04-27T09:46:01.373Z,7997
2017-04-27T09:47:03.182Z,8841
2017-04-27T09:48:05.001Z,8775
2017-04-27T09:49:06.811Z,8817
2017-04-27T09:50:08.618Z,9252
2017-04-27T09:51:10.432Z,13496
2017-04-27T09:52:12.241Z,13016
2017-04-27T09:53:14.067Z,14099
2017-04-27T09:54:16.219Z,8433
2017-04-27T09:55:18.386Z,7422
2017-04-27T09:56:20.207Z,65536
2017-04-27T09:57:22.355Z,65536
2017-04-27T09:58:24.166Z,65536
2017-04-27T09:59:25.973Z,65536
2017-04-27T10:00:27.785Z,65536
2017-04-27T10:01:30.270Z,65536
2017-04-27T10:02:32.080Z,12486
2017-04-27T10:03:33.891Z,8193
2017-04-27T10:04:35.704Z,65536
2017-04-27T10:05:37.516Z,65536
2017-04-27T10:06:39.337Z,65536
2017-04-27T10:07:41.145Z,65536
2017-04-27T10:08:42.958Z,65536
2017-04-27T10:09:44.772Z,65536
2017-04-27T10:10:46.583Z,14779
2017-04-27T10:11:48.393Z,12924
2017-04-27T10:12:50.209Z,65536
2017-04-27T10:13:52.020Z,65536
2017-04-27T10:14:53.851Z,65536
2017-04-27T10:15:55.660Z,65536
2017-04-27T10:16:57.488Z,65536
2017-04-27T10:17:59.296Z,65536
2017-04-27T10:19:01.111Z,65536
2017-04-27T10:20:03.261Z,65536
2017-04-27T10:21:05.076Z,65536
2017-04-27T10:22:06.894Z,65536
2017-04-27T10:23:08.702Z,65536
2017-04-27T10:24:10.518Z,16104
2017-04-27T10:25:12.360Z,20597
2017-04-27T10:26:14.178Z,19947
2017-04-27T10:27:15.994Z,65536
2017-04-27T10:28:17.812Z,11754
2017-04-27T10:29:19.627Z,7458
2017-04-27T10:30:21.445Z,6069
2017-04-27T10:31:23.257Z,6145
2017-04-27T10:32:25.072Z,6356
2017-04-27T10:33:26.881Z,6927
2017-04-27T10:34:29.035Z,7163
2017-04-27T10:35:30.845Z,8337
2017-04-27T10:36:32.657Z,12326
2017-04-27T10:37:34.470Z,65536
2017-04-27T10:38:36.286Z,11544
2017-04-27T10:39:38.100Z,10287
2017-04-27T10:40:39.911Z,8925
2017-04-27T10:41:41.724Z,9740
2017-04-27T10:42:43.552Z,10904
2017-04-27T10:43:45.364Z,65536
2017-04-27T10:44:47.171Z,65536
2017-04-27T10:45:48.984Z,65536
2017-04-27T10:46:50.789Z,65536
2017-04-27T10:47:52.605Z,65536
2017-04-27T10:48:54.753Z,65536
2017-04-27T10:49:56.566Z,65536
2017-04-27T10:50:58.712Z,65536
2017-04-27T10:52:00.534Z,65536
2017-04-27T10:53:02.347Z,65536
2017-04-27T10:54:04.159Z,65536
2017-04-27T10:55:05.969Z,65536
2017-04-27T10:56:07.787Z,36486
2017-04-27T10:57:09.597Z,65536
2017-04-27T10:58:11.436Z,12280
2017-04-27T10:59:13.250Z,65536
2017-04-27T11:00:15.071Z,65536
2017-04-27T11:01:17.217Z,65536
2017-04-27T11:02:19.028Z,65536
2017-04-27T11:03:20.846Z,17928
2017-04-27T11:04:22.657Z,26273
2017-04-27T11:05:24.473Z,22594
2017-04-27T11:06:26.283Z,28760
2017-04-27T11:07:28.102Z,65536
2017-04-27T11:08:29.921Z,65536
2017-04-27T11:09:32.066Z,20216
2017-04-27T11:10:33.880Z,65536
2017-04-27T11:11:35.691Z,65536
2017-04-27T11:12:37.509Z,65536
2017-04-27T11:13:39.320Z,26042
2017-04-27T11:14:41.129Z,22648
2017-04-27T11:15:42.952Z,35884
2017-04-27T11:16:44.760Z,65536
2017-04-27T11:17:46.573Z,20649
2017-04-27T11:18:48.383Z,12606
2017-04-27T11:19:50.201Z,8668
2017-04-27T11:20:52.017Z,6536
2017-04-27T11:21:53.827Z,5651
2017-04-27T11:22:55.986Z,5037
2017-04-27T11:23:57.808Z,4782
2017-04-27T11:24:59.634Z,4694
2017-04-27T11:26:01.780Z,4597
2017-04-27T11:27:03.592Z,4500
2017-04-27T11:28:05.741Z,4764
2017-04-27T11:29:07.560Z,5365
2017-04-27T11:30:09.368Z,5897
2017-04-27T11:31:11.186Z,5809
2017-04-27T11:32:12.992Z,5377
2017-04-27T11:33:14.799Z,4756
2017-04-27T11:34:16.611Z,4369
2017-04-27T11:35:18.417Z,4871
2017-04-27T11:36:20.564Z,5950
2017-04-27T11:37:22.381Z,7228
2017-04-27T11:38:24.189Z,8246
2017-04-27T11:39:25.997Z,9211
2017-04-27T11:40:27.805Z,11262
2017-04-27T11:41:29.964Z,15216
2017-04-27T11:42:31.770Z,18662
2017-04-27T11:43:33.577Z,21585
2017-04-27T11:44:35.391Z,24070
2017-04-27T11:45:37.195Z,28644
2017-04-27T11:46:39.003Z,65536
2017-04-27T11:47:40.820Z,39666
2017-04-27T11:48:42.969Z,65536
2017-04-27T11:49:44.773Z,65536
2017-04-27T11:50:46.918Z,65536
2017-04-27T11:51:48.729Z,65536
2017-04-27T11:52:50.533Z,28237
2017-04-27T11:53:52.345Z,65536
2017-04-27T11:54:54.154Z,65536
2017-04-27T11:55:55.963Z,65536
2017-04-27T11:56:57.796Z,65536
2017-04-27T11:57:59.605Z,65536
2017-04-27T11:59:01.747Z,65536
2017-04-27T12:00:03.559Z,65536
2017-04-27T12:01:05.368Z,65536
2017-04-27T12:02:07.176Z,65536
2017-04-27T12:03:08.986Z,65536
2017-04-27T12:04:10.799Z,65536
2017-04-27T12:05:12.602Z,65536
2017-04-27T12:06:14.417Z,65536
2017-04-27T12:07:16.574Z,65536
2017-04-27T12:08:18.389Z,8177
2017-04-27T12:09:20.200Z,6168
2017-04-27T12:10:22.358Z,4804
2017-04-27T12:11:24.168Z,3999
2017-04-27T12:12:25.984Z,4464
2017-04-27T12:13:27.795Z,6197
2017-04-27T12:14:29.601Z,8837
2017-04-27T12:15:31.419Z,12339
2017-04-27T12:16:33.234Z,17069
2017-04-27T12:17:35.051Z,17872
2017-04-27T12:18:36.856Z,18755
2017-04-27T12:19:38.668Z,65536
2017-04-27T12:20:40.476Z,34817
2017-04-27T12:21:42.285Z,65536
2017-04-27T12:22:44.095Z,65536
2017-04-27T12:23:45.904Z,30483
2017-04-27T12:24:47.711Z,65536
2017-04-27T12:25:49.523Z,65536
2017-04-27T12:26:51.328Z,65536
2017-04-27T12:27:53.141Z,65536
2017-04-27T12:28:55.291Z,65536
2017-04-27T12:29:57.107Z,65536
2017-04-27T12:30:58.919Z,65536
2017-04-27T12:32:00.733Z,65536
2017-04-27T12:33:02.549Z,65536
2017-04-27T12:34:04.355Z,65536
2017-04-27T12:35:06.170Z,65536
2017-04-27T12:36:07.982Z,65536
2017-04-27T12:37:10.140Z,65536
2017-04-27T12:38:11.949Z,65536
2017-04-27T12:39:14.099Z,65536
2017-04-27T12:40:16.267Z,65536
2017-04-27T12:41:18.084Z,65536
2017-04-27T12:42:19.896Z,65536
2017-04-27T12:43:21.706Z,65536
2017-04-27T12:44:23.523Z,65536
2017-04-27T12:45:25.348Z,65536
2017-04-27T12:46:27.510Z,65536
2017-04-27T12:47:29.331Z,65536
2017-04-27T12:48:31.154Z,65536
2017-04-27T12:49:32.974Z,65536
2017-04-27T12:50:34.796Z,8869
2017-04-27T12:51:36.610Z,8018
2017-04-27T12:52:38.426Z,7660
2017-04-27T12:53:40.244Z,6820
2017-04-27T12:54:42.058Z,6736
2017-04-27T12:55:44.211Z,8258
2017-04-27T12:56:46.028Z,10291
2017-04-27T12:57:47.840Z,10985
2017-04-27T12:58:49.659Z,10079
2017-04-27T12:59:51.478Z,9585
2017-04-27T13:00:53.635Z,9423
2017-04-27T13:01:55.451Z,9249
2017-04-27T13:02:57.273Z,8741
2017-04-27T13:03:59.087Z,7990
2017-04-27T13:05:00.899Z,8124
2017-04-27T13:06:03.053Z,8186
2017-04-27T13:07:04.872Z,8520
2017-04-27T13:08:06.681Z,9502
2017-04-27T13:09:08.834Z,11832
2017-04-27T13:10:10.651Z,21812
2017-04-27T13:11:12.462Z,19457
2017-04-27T13:12:14.277Z,65536
2017-04-27T13:13:16.438Z,65536
2017-04-27T13:14:18.259Z,65536
2017-04-27T13:15:20.430Z,65536
2017-04-27T13:16:22.580Z,65536
2017-04-27T13:17:24.395Z,24565
2017-04-27T13:18:26.210Z,12405
2017-04-27T13:19:28.030Z,25950
2017-04-27T13:20:29.840Z,65536
2017-04-27T13:21:31.653Z,15923
2017-04-27T13:22:33.483Z,12044
2017-04-27T13:23:35.322Z,9885
2017-04-27T13:24:37.141Z,9225
2017-04-27T13:25:38.954Z,10094
2017-04-27T13:26:40.765Z,10359
2017-04-27T13:27:42.589Z,10773
2017-04-27T13:28:44.607Z,9856
2017-04-27T13:29:46.422Z,8986
2017-04-27T13:30:48.578Z,8037
2017-04-27T13:31:57.518Z,7529
2017-04-27T13:32:59.360Z,7460
2017-04-27T13:34:01.175Z,8619
2017-04-27T13:35:02.993Z,15594
2017-04-27T13:36:04.802Z,23234
2017-04-27T13:37:06.620Z,65536
2017-04-27T13:38:08.495Z,65536
2017-04-27T13:39:10.308Z,65536
2017-04-27T13:40:12.465Z,65536
2017-04-27T13:41:14.283Z,65536
2017-04-27T13:42:16.430Z,65536
2017-04-27T13:43:18.244Z,65536
2017-04-27T13:44:20.062Z,13333
2017-04-27T13:45:22.206Z,12164
2017-04-27T13:46:24.020Z,9241
2017-04-27T13:47:25.837Z,8092
2017-04-27T13:48:27.651Z,7395
2017-04-27T13:49:29.473Z,6733
2017-04-27T13:50:31.284Z,6107
2017-04-27T13:51:33.096Z,5253
2017-04-27T13:52:34.912Z,4641
2017-04-27T13:53:36.728Z,4376
2017-04-27T13:54:38.542Z,4214
2017-04-27T13:55:40.356Z,4044
2017-04-27T13:56:42.173Z,3810
2017-04-27T13:57:43.984Z,3648
2017-04-27T13:58:46.475Z,3499
2017-04-27T13:59:48.284Z,3416